Time;durP1;ratioP1;P1;durP2;ratioP2;P2;SDS_P1;SDS_P2;PMS_P1;PMS_P2;Temp;Humidity;BMP_temperature;BMP_pressure;BME280_temperature;BME280_humidity;BME280_pressure;Samples;Min_cycle;Max_cycle;Signal;HPM_P1;HPM_P2
2021/12/28 00:00:55;;;;;;;2.60;2.03;;;;;;;8.50;63.75;100844.25;5041350;27;102733;-57
2021/12/28 00:03:21;;;;;;;3.45;2.10;;;;;;;8.49;63.95;100842.63;5038104;27;103922;-57
2021/12/28 00:05:47;;;;;;;4.75;2.03;;;;;;;8.49;64.67;100840.72;5043846;27;102520;-57
2021/12/28 00:08:15;;;;;;;2.97;2.13;;;;;;;8.49;64.78;100839.91;5041389;27;102396;-57
2021/12/28 00:10:43;;;;;;;3.03;2.17;;;;;;;8.50;64.34;100849.66;5043925;27;102282;-57
2021/12/28 00:13:10;;;;;;;4.78;2.00;;;;;;;8.50;64.78;100836.09;5046697;27;104258;-56
2021/12/28 00:18:22;;;;;;;2.97;2.08;;;;;;;8.50;64.13;100822.53;5041172;27;102465;-56
2021/12/28 00:20:52;;;;;;;3.00;2.17;;;;;;;8.49;63.74;100815.50;5048979;27;102224;-57
2021/12/28 00:23:20;;;;;;;2.30;1.88;;;;;;;8.49;64.65;100824.44;5038082;27;104199;-57
2021/12/28 00:25:50;;;;;;;3.90;2.10;;;;;;;8.49;64.05;100810.06;5044423;27;102126;-58
2021/12/28 00:28:18;;;;;;;2.50;2.30;;;;;;;8.50;63.64;100806.28;5051338;27;102188;-56
2021/12/28 00:30:45;;;;;;;4.50;2.17;;;;;;;8.49;63.99;100816.31;5039607;27;103742;-57
2021/12/28 00:33:11;;;;;;;2.40;1.88;;;;;;;8.48;64.56;100809.25;5052676;27;103938;-56
2021/12/28 00:35:39;;;;;;;2.92;1.73;;;;;;;8.48;64.32;100811.97;5039068;27;102637;-57
2021/12/28 00:38:08;;;;;;;2.17;1.98;;;;;;;8.49;63.43;100810.06;5045293;27;102658;-57
2021/12/28 00:40:36;;;;;;;3.90;1.65;;;;;;;8.49;64.20;100808.16;5046915;27;102332;-57
2021/12/28 00:43:04;;;;;;;2.50;2.28;;;;;;;8.49;63.86;100807.34;5046706;27;104108;-56
2021/12/28 00:45:31;;;;;;;2.00;1.80;;;;;;;8.48;64.72;100808.44;5045690;27;102470;-56
2021/12/28 00:47:58;;;;;;;2.40;1.70;;;;;;;8.47;64.12;100801.34;5036273;27;102556;-57
2021/12/28 00:50:26;;;;;;;3.50;2.10;;;;;;;8.48;64.05;100789.44;5048340;27;102200;-57
2021/12/28 00:52:55;;;;;;;2.13;1.93;;;;;;;8.48;64.78;100775.88;5039918;27;103924;-57
2021/12/28 00:55:23;;;;;;;2.38;1.83;;;;;;;8.48;63.75;100773.19;5040125;27;102694;-56
2021/12/28 00:57:50;;;;;;;2.00;1.70;;;;;;;8.48;64.85;100770.47;5038365;27;102140;-55
2021/12/28 01:00:20;;;;;;;2.67;2.10;;;;;;;8.48;64.05;100765.03;5047530;27;102170;-56
2021/12/28 01:02:47;;;;;;;2.50;2.00;;;;;;;8.47;63.96;100768.81;5038391;27;103619;-57
2021/12/28 01:05:14;;;;;;;3.47;2.28;;;;;;;8.47;64.48;100757.97;5045594;27;102215;-56
2021/12/28 01:07:41;;;;;;;2.92;2.05;;;;;;;8.48;64.45;100754.19;5041982;27;102525;-57
2021/12/28 01:10:12;;;;;;;2.53;2.33;;;;;;;8.48;64.23;100748.78;5038578;27;102302;-57
2021/12/28 01:12:40;;;;;;;2.40;2.20;;;;;;;8.49;64.25;100742.25;5042120;27;104072;-57
2021/12/28 01:15:09;;;;;;;2.63;2.20;;;;;;;8.47;64.67;100747.91;5042780;27;103001;-57
2021/12/28 01:17:38;;;;;;;2.45;2.25;;;;;;;8.49;64.63;100739.56;5036307;27;102607;-57
2021/12/28 01:20:07;;;;;;;3.20;2.67;;;;;;;8.48;64.58;100730.59;5051593;27;103734;-57
2021/12/28 01:22:33;;;;;;;;;;;;;;;8.47;63.70;100726.22;5049213;27;104103;-57
2021/12/28 01:25:00;;;;;;;2.70;2.50;;;;;;;8.48;63.56;100721.66;5043960;27;102134;-57
2021/12/28 01:27:26;;;;;;;3.28;2.97;;;;;;;8.47;63.74;100726.22;5039389;27;102221;-56
2021/12/28 01:29:53;;;;;;;3.00;2.70;;;;;;;8.47;64.41;100715.38;5037833;27;102185;-57
2021/12/28 01:32:19;;;;;;;3.72;2.95;;;;;;;8.48;64.63;100710.78;5038066;27;103862;-57
2021/12/28 01:34:48;;;;;;;3.30;2.83;;;;;;;8.48;64.13;100718.94;5045058;27;102148;-57
2021/12/28 01:37:15;;;;;;;3.40;3.10;;;;;;;8.47;63.73;100703.72;5037010;27;103013;-57
2021/12/28 01:39:41;;;;;;;3.20;2.90;;;;;;;8.48;64.27;100694.53;5041263;27;102508;-57
2021/12/28 01:42:08;;;;;;;3.10;2.80;;;;;;;8.49;63.82;100693.44;5036629;27;103973;-57
2021/12/28 01:44:36;;;;;;;2.70;2.50;;;;;;;8.49;64.12;100690.72;5037154;27;103692;-57
2021/12/28 01:47:03;;;;;;;4.40;3.17;;;;;;;8.48;63.62;100689.09;5038373;27;102106;-57
2021/12/28 01:49:31;;;;;;;3.47;2.88;;;;;;;8.49;63.75;100696.16;5040371;27;102342;-56
2021/12/28 01:51:59;;;;;;;3.22;2.92;;;;;;;8.48;64.33;100702.66;5034824;27;103901;-57
2021/12/28 01:54:25;;;;;;;3.03;2.83;;;;;;;8.48;63.92;100692.63;5051989;27;102096;-57
2021/12/28 01:56:52;;;;;;;2.72;2.53;;;;;;;8.48;64.03;100683.69;5036867;27;102422;-57
2021/12/28 01:59:21;;;;;;;3.67;3.35;;;;;;;8.49;64.67;100696.16;5037888;27;102412;-57
2021/12/28 02:01:50;;;;;;;3.22;2.92;;;;;;;8.49;63.84;100682.59;5041400;27;104008;-57
2021/12/28 02:04:19;;;;;;;3.45;3.08;;;;;;;8.50;63.94;100690.47;5052178;27;102147;-57
2021/12/28 02:06:46;;;;;;;3.00;2.70;;;;;;;8.50;64.13;100682.31;5037200;27;102259;-57
2021/12/28 02:09:15;;;;;;;4.15;3.28;;;;;;;8.49;64.43;100683.41;5044521;27;102182;-57
2021/12/28 02:11:43;;;;;;;3.33;3.03;;;;;;;8.50;63.87;100682.31;5037023;27;104098;-56
2021/12/28 02:14:11;;;;;;;2.97;2.70;;;;;;;8.50;64.63;100676.91;5036709;27;102547;-57
2021/12/28 02:16:42;;;;;;;3.15;2.70;;;;;;;8.50;64.41;100673.38;5044218;27;102256;-57
2021/12/28 02:19:11;;;;;;;3.40;3.08;;;;;;;8.50;63.46;100667.94;5037255;27;102045;-57
2021/12/28 02:21:39;;;;;;;3.95;2.72;;;;;;;8.51;63.42;100675.00;5046603;27;106552;-57
2021/12/28 02:24:07;;;;;;;3.03;2.72;;;;;;;8.51;64.11;100666.84;5037561;27;102294;-56
2021/12/28 02:26:41;;;;;;;3.60;3.30;;;;;;;8.51;64.27;100666.84;5037740;27;102234;-57
2021/12/28 02:29:07;;;;;;;2.63;2.42;;;;;;;8.51;64.46;100662.28;5044541;27;103245;-57
2021/12/28 02:31:34;;;;;;;3.10;2.70;;;;;;;8.51;64.19;100661.44;5040724;27;103851;-57
2021/12/28 02:34:03;;;;;;;3.28;2.85;;;;;;;8.53;64.24;100664.72;5046499;27;102174;-57
2021/12/28 02:36:30;;;;;;;3.00;2.70;;;;;;;8.51;64.35;100650.59;5050864;27;102218;-57
2021/12/28 02:38:59;;;;;;;3.25;2.83;;;;;;;8.51;63.75;100661.44;5050737;27;102248;-57
2021/12/28 02:41:25;;;;;;;3.25;2.95;;;;;;;8.51;64.43;100653.31;5040618;27;104176;-57
2021/12/28 02:43:58;;;;;;;3.63;2.95;;;;;;;8.53;64.28;100651.16;5044366;27;102703;-57
2021/12/28 02:46:25;;;;;;;2.95;2.67;;;;;;;8.51;64.57;100632.44;5048516;27;102177;-56
2021/12/28 02:48:51;;;;;;;2.78;2.58;;;;;;;8.52;64.43;100638.69;5042778;27;102367;-56
2021/12/28 02:51:18;;;;;;;2.70;2.50;;;;;;;8.52;63.47;100625.94;5051909;27;104000;-57
2021/12/28 02:53:46;;;;;;;3.03;2.70;;;;;;;8.53;64.47;100632.16;5042451;27;103876;-57
2021/12/28 02:56:16;;;;;;;2.87;2.67;;;;;;;8.54;63.70;100622.94;5044887;27;102704;-57
2021/12/28 02:58:44;;;;;;;3.22;2.92;;;;;;;8.53;64.55;100624.84;5039295;27;102591;-58
2021/12/28 03:01:14;;;;;;;2.77;2.57;;;;;;;8.54;64.44;100622.94;5044046;27;104027;-57
2021/12/28 03:03:42;;;;;;;3.25;2.97;;;;;;;8.54;63.66;100625.66;5050220;27;102219;-57
2021/12/28 03:06:12;;;;;;;3.45;3.13;;;;;;;8.55;64.47;100624.59;5054110;27;101992;-57
2021/12/28 03:08:44;;;;;;;2.83;2.53;;;;;;;8.55;64.37;100625.41;5039049;27;102130;-57
2021/12/28 03:11:12;;;;;;;2.97;2.60;;;;;;;8.55;64.42;100620.00;5047058;27;104373;-57
2021/12/28 03:13:42;;;;;;;3.00;2.50;;;;;;;8.54;63.85;100617.53;5040818;27;102829;-57
2021/12/28 03:16:09;;;;;;;2.63;2.42;;;;;;;8.55;63.83;100608.34;5038315;27;102144;-57
2021/12/28 03:18:37;;;;;;;2.97;2.78;;;;;;;8.55;64.23;100614.56;5051764;27;103941;-57
2021/12/28 03:21:06;;;;;;;2.67;2.45;;;;;;;8.56;63.73;100610.78;5052586;27;103960;-57
2021/12/28 03:23:34;;;;;;;2.70;2.50;;;;;;;8.56;63.96;100615.38;5053484;27;102208;-57
2021/12/28 03:26:01;;;;;;;3.00;2.80;;;;;;;8.56;64.02;100609.97;5038241;27;102132;-57
2021/12/28 03:28:31;;;;;;;2.58;2.38;;;;;;;8.57;63.76;100619.72;5038832;27;102726;-57
2021/12/28 03:31:00;;;;;;;2.97;2.67;;;;;;;8.57;63.95;100625.97;5038373;27;103992;-57
2021/12/28 03:33:29;;;;;;;3.25;2.90;;;;;;;8.57;63.88;100617.00;5049606;27;102460;-56
2021/12/28 03:35:56;;;;;;;2.67;2.47;;;;;;;8.58;63.91;100610.50;5045899;27;102423;-57
2021/12/28 03:38:23;;;;;;;3.40;3.10;;;;;;;8.58;63.72;100608.63;5040324;27;102226;-57
2021/12/28 03:40:50;;;;;;;2.72;2.50;;;;;;;8.58;64.34;100619.47;5045534;27;103989;-57
2021/12/28 03:43:17;;;;;;;3.10;2.80;;;;;;;8.59;64.05;100620.28;5049283;27;102114;-57
2021/12/28 03:45:44;;;;;;;2.72;2.50;;;;;;;8.59;64.39;100617.56;5040161;27;102248;-57
2021/12/28 03:48:12;;;;;;;3.00;2.70;;;;;;;8.60;64.04;100611.06;5051075;27;102348;-57
2021/12/28 03:50:39;;;;;;;2.60;2.40;;;;;;;8.60;63.54;100616.50;5052607;27;103153;-57
2021/12/28 03:53:07;;;;;;;3.90;2.60;;;;;;;8.60;63.83;100611.06;5052408;27;102334;-57
2021/12/28 03:55:35;;;;;;;3.00;2.67;;;;;;;8.60;64.35;100611.88;5042502;27;102171;-57
2021/12/28 03:58:02;;;;;;;3.28;2.63;;;;;;;8.61;64.28;100612.69;5047727;27;102356;-57
2021/12/28 04:00:33;;;;;;;2.92;2.60;;;;;;;8.62;64.28;100609.75;5050307;27;104221;-57
2021/12/28 04:03:00;;;;;;;2.92;2.63;;;;;;;8.62;64.09;100598.06;5045957;27;102236;-57
2021/12/28 04:05:28;;;;;;;2.55;2.35;;;;;;;8.62;64.08;100592.66;5051869;27;102780;-57
2021/12/28 04:07:55;;;;;;;2.55;2.35;;;;;;;8.62;64.06;100587.22;5046187;27;102461;-57
2021/12/28 04:10:29;;;;;;;2.63;2.42;;;;;;;8.62;64.39;100593.47;5042416;27;104049;-57
2021/12/28 04:12:57;;;;;;;2.70;2.50;;;;;;;8.62;64.64;100601.59;5039394;27;102149;-57
2021/12/28 04:15:23;;;;;;;2.97;2.60;;;;;;;8.62;64.19;100592.66;5038842;27;102314;-57
2021/12/28 04:17:53;;;;;;;2.95;2.50;;;;;;;8.62;63.89;100588.03;5048347;27;102695;-57
2021/12/28 04:20:21;;;;;;;3.17;2.88;;;;;;;8.62;64.53;100592.66;5049148;27;103892;-57
2021/12/28 04:22:50;;;;;;;2.83;2.53;;;;;;;8.64;64.40;100590.47;5052371;27;102407;-57
2021/12/28 04:25:18;;;;;;;2.47;2.27;;;;;;;8.63;64.44;100595.09;5039407;27;102326;-57
2021/12/28 04:27:46;;;;;;;2.65;2.45;;;;;;;8.63;64.43;100589.66;5039918;27;102582;-57
2021/12/28 04:30:14;;;;;;;2.92;2.63;;;;;;;8.65;63.96;100608.38;5052274;27;104019;-57
2021/12/28 04:32:41;;;;;;;2.78;2.35;;;;;;;8.64;64.46;100595.91;5043608;27;102194;-57
2021/12/28 04:35:09;;;;;;;3.92;2.20;;;;;;;8.65;64.45;100592.09;5044553;27;102218;-57
2021/12/28 04:37:39;;;;;;;2.83;2.55;;;;;;;8.64;64.12;100583.16;5044506;27;102204;-57
2021/12/28 04:40:09;;;;;;;2.90;2.60;;;;;;;8.65;64.04;100592.09;5044645;27;103955;-57
2021/12/28 04:42:37;;;;;;;2.30;2.10;;;;;;;8.64;63.92;100596.72;5043491;27;102647;-57
2021/12/28 04:45:07;;;;;;;1.80;1.70;;;;;;;8.66;63.82;100588.31;5045181;27;102463;-56
2021/12/28 04:47:34;;;;;;;2.58;2.38;;;;;;;8.66;63.68;100593.75;5048878;27;102571;-57
2021/12/28 04:50:01;;;;;;;2.42;2.22;;;;;;;8.66;63.82;100581.00;5036199;27;103984;-57
2021/12/28 04:52:34;;;;;;;2.70;2.20;;;;;;;8.66;63.90;100591.84;5042704;27;102233;-57
2021/12/28 04:55:00;;;;;;;2.58;2.38;;;;;;;8.66;63.96;100585.63;5046688;27;102387;-57
2021/12/28 04:57:28;;;;;;;2.13;1.98;;;;;;;8.66;64.43;100594.56;5043744;27;102548;-57
2021/12/28 04:59:54;;;;;;;2.17;1.98;;;;;;;8.67;64.78;100595.38;5038418;27;103884;-57
2021/12/28 05:02:20;;;;;;;2.78;2.20;;;;;;;8.66;63.95;100594.56;5041113;27;102172;-58
2021/12/28 05:04:47;;;;;;;2.10;1.90;;;;;;;8.66;63.75;100589.13;5034536;27;102353;-58
2021/12/28 05:07:13;;;;;;;2.22;2.03;;;;;;;8.67;64.56;100589.97;5043714;27;102451;-57
2021/12/28 05:09:40;;;;;;;2.90;2.33;;;;;;;8.68;64.02;100586.16;5046031;27;104023;-57
2021/12/28 05:12:07;;;;;;;2.40;2.20;;;;;;;8.67;63.91;100581.81;5050589;27;104555;-57
2021/12/28 05:14:39;;;;;;;2.60;2.40;;;;;;;8.68;64.36;100590.75;5050355;27;103004;-57
2021/12/28 05:17:06;;;;;;;2.40;2.20;;;;;;;8.68;64.60;100591.59;5040438;27;102592;-57
2021/12/28 05:19:33;;;;;;;2.65;2.38;;;;;;;8.67;64.21;100584.53;5041164;27;103040;-58
2021/12/28 05:22:00;;;;;;;2.63;2.42;;;;;;;8.68;63.75;100583.44;5040322;27;102491;-57
2021/12/28 05:24:26;;;;;;;2.67;2.47;;;;;;;8.68;64.08;100586.16;5036179;27;102618;-57
2021/12/28 05:26:53;;;;;;;2.38;2.20;;;;;;;8.69;63.77;100581.53;5041831;27;102300;-58
2021/12/28 05:29:21;;;;;;;2.30;2.10;;;;;;;8.68;63.97;100591.59;5035416;27;104011;-57
2021/12/28 05:31:49;;;;;;;3.38;2.33;;;;;;;8.68;63.69;100580.72;5036706;27;103091;-57
2021/12/28 05:34:15;;;;;;;2.63;2.38;;;;;;;8.68;64.23;100575.31;5035963;27;102224;-57
2021/12/28 05:36:42;;;;;;;2.75;2.30;;;;;;;8.69;64.51;100576.13;5038509;27;102399;-58
2021/12/28 05:39:08;;;;;;;2.33;2.03;;;;;;;8.70;63.67;100588.63;5043082;27;103994;-58
2021/12/28 05:41:35;;;;;;;2.92;2.40;;;;;;;8.69;63.95;100587.81;5037916;27;102218;-57
2021/12/28 05:44:02;;;;;;;2.47;2.28;;;;;;;8.69;64.13;100582.38;5034596;27;102167;-57
2021/12/28 05:46:28;;;;;;;3.67;2.28;;;;;;;8.70;63.72;100581.28;5049760;27;103962;-57
2021/12/28 05:48:57;;;;;;;2.83;2.53;;;;;;;8.69;64.28;100587.81;5034555;27;104212;-57
2021/12/28 05:51:26;;;;;;;2.97;2.67;;;;;;;8.70;64.40;100597.56;5037201;27;102370;-57
2021/12/28 05:53:52;;;;;;;2.92;2.67;;;;;;;8.69;64.14;100598.66;5036765;27;102708;-58
2021/12/28 05:56:19;;;;;;;2.55;2.35;;;;;;;8.70;63.73;100604.91;5041407;27;102744;-57
2021/12/28 05:58:45;;;;;;;2.47;2.22;;;;;;;8.71;63.89;100601.09;5041955;27;104586;-57
2021/12/28 06:01:12;;;;;;;2.38;2.17;;;;;;;8.70;64.41;100605.72;5041428;27;102316;-58
2021/12/28 06:03:39;;;;;;;3.72;2.20;;;;;;;8.70;63.79;100613.84;5042889;27;105136;-58
2021/12/28 06:06:06;;;;;;;3.03;2.72;;;;;;;8.69;63.51;100606.81;5037646;27;102355;-57
2021/12/28 06:08:33;;;;;;;3.05;2.75;;;;;;;8.70;63.82;100603.00;5038720;27;104036;-57
2021/12/28 06:11:00;;;;;;;3.35;2.80;;;;;;;8.70;63.95;100594.88;5050434;27;102276;-57
2021/12/28 06:13:26;;;;;;;3.08;2.78;;;;;;;8.72;64.07;100602.72;5040254;27;102720;-57
2021/12/28 06:15:53;;;;;;;2.70;2.50;;;;;;;8.71;63.58;100607.34;5037099;27;103801;-57
2021/12/28 06:18:19;;;;;;;3.03;2.72;;;;;;;8.71;63.75;100601.91;5041658;27;104315;-57
2021/12/28 06:20:46;;;;;;;3.25;2.95;;;;;;;8.71;63.86;100607.34;5035651;27;102609;-57
2021/12/28 06:23:16;;;;;;;3.78;2.50;;;;;;;8.70;64.01;100613.84;5043649;27;102224;-58
2021/12/28 06:25:42;;;;;;;3.25;2.72;;;;;;;8.71;63.84;100609.25;5048400;27;104123;-57
2021/12/28 06:28:08;;;;;;;3.20;2.40;;;;;;;8.71;63.69;100610.06;5033595;27;103768;-57
2021/12/28 06:30:36;;;;;;;3.42;2.90;;;;;;;8.71;64.00;100610.06;5048386;27;104317;-58
2021/12/28 06:33:03;;;;;;;3.35;2.75;;;;;;;8.72;64.58;100611.69;5040977;27;102926;-57
2021/12/28 06:35:30;;;;;;;3.25;2.95;;;;;;;8.72;63.84;100606.25;5039877;27;102810;-57
2021/12/28 06:37:57;;;;;;;3.45;2.88;;;;;;;8.73;64.35;100604.34;5035672;27;104095;-57
2021/12/28 06:40:25;;;;;;;3.20;2.90;;;;;;;8.73;64.20;100602.47;5042598;27;102217;-57
2021/12/28 06:42:52;;;;;;;3.27;2.80;;;;;;;8.73;64.10;100605.19;5033467;27;102224;-57
2021/12/28 06:45:20;;;;;;;3.38;2.72;;;;;;;8.73;64.15;100605.19;5036384;27;102344;-57
2021/12/28 06:47:47;;;;;;;3.17;2.83;;;;;;;8.74;64.45;100609.53;5036752;27;103663;-57
2021/12/28 06:50:13;;;;;;;4.32;3.28;;;;;;;8.74;64.54;100606.00;5036186;27;102555;-57
2021/12/28 06:52:40;;;;;;;3.67;3.15;;;;;;;8.75;64.34;100613.06;5037909;27;103290;-57
2021/12/28 06:55:09;;;;;;;3.22;2.92;;;;;;;8.74;63.91;100601.41;5032547;27;103692;-58
2021/12/28 06:57:39;;;;;;;4.32;3.08;;;;;;;8.74;64.63;100604.09;5043729;27;103954;-57
2021/12/28 07:00:09;;;;;;;3.20;2.90;;;;;;;8.75;63.78;100608.44;5043906;27;102860;-57
2021/12/28 07:02:36;;;;;;;3.42;3.08;;;;;;;8.76;63.93;100620.13;5042366;27;102168;-57
2021/12/28 07:05:03;;;;;;;3.45;2.95;;;;;;;8.76;64.41;100620.94;5039328;27;104868;-57
2021/12/28 07:07:30;;;;;;;3.25;2.88;;;;;;;8.76;63.66;100610.06;5052188;27;103697;-57
2021/12/28 07:09:56;;;;;;;4.32;3.35;;;;;;;8.77;64.58;100609.00;5038824;27;102689;-57
2021/12/28 07:12:23;;;;;;;3.33;3.03;;;;;;;8.77;64.59;100610.91;5037438;27;102288;-57
2021/12/28 07:14:51;;;;;;;3.78;3.28;;;;;;;8.78;64.53;100601.69;5050297;27;102112;-56
2021/12/28 07:17:18;;;;;;;3.83;3.10;;;;;;;8.78;64.23;100590.84;5040807;27;104169;-56
2021/12/28 07:19:46;;;;;;;3.45;3.15;;;;;;;8.77;64.42;100584.59;5036472;27;102779;-57
2021/12/28 07:22:12;;;;;;;4.38;3.20;;;;;;;8.78;64.00;100591.66;5035672;27;102198;-57
2021/12/28 07:24:39;;;;;;;4.15;3.33;;;;;;;8.78;64.16;100597.06;5041344;27;102754;-57
2021/12/28 07:27:05;;;;;;;3.17;2.83;;;;;;;8.79;64.06;100601.41;5038480;27;104047;-58
2021/12/28 07:29:33;;;;;;;3.65;3.08;;;;;;;8.79;64.03;100589.75;5039568;27;102150;-58
2021/12/28 07:32:03;;;;;;;3.65;3.20;;;;;;;8.79;64.28;100582.41;5038502;27;102372;-58
2021/12/28 07:34:31;;;;;;;4.03;3.38;;;;;;;8.79;64.56;100570.75;5048243;27;102263;-57
2021/12/28 07:36:57;;;;;;;3.33;2.92;;;;;;;8.79;64.69;100579.69;5053632;27;104605;-57
2021/12/28 07:39:24;;;;;;;3.50;3.20;;;;;;;8.79;64.17;100582.41;5047367;27;102259;-57
2021/12/28 07:41:50;;;;;;;4.18;2.75;;;;;;;8.78;64.20;100586.22;5043521;27;102107;-57
2021/12/28 07:44:17;;;;;;;4.22;3.15;;;;;;;8.80;63.81;100584.06;5041634;27;102218;-57
2021/12/28 07:46:43;;;;;;;3.70;3.20;;;;;;;8.80;64.19;100583.22;5045061;27;103699;-57
2021/12/28 07:49:11;;;;;;;3.83;3.10;;;;;;;8.80;64.59;100588.66;5054792;27;102177;-57
2021/12/28 07:51:37;;;;;;;3.70;3.20;;;;;;;8.80;63.74;100589.50;5042705;27;101883;-57
2021/12/28 07:54:03;;;;;;;2.90;2.65;;;;;;;8.80;64.22;100581.34;5046366;27;103067;-57
2021/12/28 07:56:30;;;;;;;4.10;3.40;;;;;;;8.80;64.01;100578.66;5053328;27;103869;-57
2021/12/28 07:58:56;;;;;;;4.00;3.17;;;;;;;8.80;64.19;100577.81;5040284;27;102309;-58
2021/12/28 08:01:23;;;;;;;4.00;3.25;;;;;;;8.80;64.63;100584.06;5037104;27;102528;-57
2021/12/28 08:03:49;;;;;;;3.40;3.10;;;;;;;8.81;64.44;100593.84;5037087;27;102251;-57
2021/12/28 08:06:17;;;;;;;4.03;2.80;;;;;;;8.81;64.70;100596.56;5038053;27;103946;-58
2021/12/28 08:08:44;;;;;;;3.40;3.08;;;;;;;8.82;64.58;100606.31;5038709;27;102684;-57
2021/12/28 08:11:10;;;;;;;4.50;3.10;;;;;;;8.82;64.08;100581.91;5038879;27;102126;-57
2021/12/28 08:13:37;;;;;;;3.25;2.92;;;;;;;8.82;64.03;100565.63;5040660;27;102195;-57
2021/12/28 08:16:04;;;;;;;3.75;3.17;;;;;;;8.84;64.39;100576.22;5038059;27;103955;-57
2021/12/28 08:18:31;;;;;;;3.45;3.00;;;;;;;8.83;64.01;100583.53;5055450;27;102519;-57
2021/12/28 08:20:59;;;;;;;4.32;3.10;;;;;;;8.84;64.23;100584.38;5039154;27;107021;-57
2021/12/28 08:23:26;;;;;;;3.05;2.75;;;;;;;8.84;64.23;100584.38;5043831;27;102294;-58
2021/12/28 08:25:53;;;;;;;3.50;2.88;;;;;;;8.85;64.21;100591.41;5037291;27;103900;-57
2021/12/28 08:28:23;;;;;;;3.53;3.22;;;;;;;8.85;63.94;100592.22;5040677;27;101911;-57
2021/12/28 08:30:50;;;;;;;3.40;3.00;;;;;;;8.86;64.48;100591.16;5049966;27;102093;-57
2021/12/28 08:33:16;;;;;;;3.42;3.10;;;;;;;8.86;64.19;100604.72;5054260;27;103982;-58
2021/12/28 08:35:42;;;;;;;2.85;2.65;;;;;;;8.86;64.48;100603.91;5052408;27;103909;-57
2021/12/28 08:38:11;;;;;;;4.40;2.78;;;;;;;8.86;64.23;100599.28;5052442;27;102358;-57
2021/12/28 08:40:43;;;;;;;3.40;3.10;;;;;;;8.87;63.88;100598.22;5050044;27;102468;-57
2021/12/28 08:43:11;;;;;;;4.53;3.30;;;;;;;8.87;64.74;100595.50;5055369;27;102236;-57
2021/12/28 08:45:40;;;;;;;5.28;3.28;;;;;;;8.87;63.93;100592.78;5051127;27;103894;-57
2021/12/28 08:48:07;;;;;;;4.32;3.00;;;;;;;8.88;64.08;100590.91;5037917;27;104628;-58
2021/12/28 08:50:35;;;;;;;4.75;3.45;;;;;;;8.89;64.39;100587.09;5047665;27;102509;-57
2021/12/28 08:53:02;;;;;;;4.63;3.47;;;;;;;8.89;64.29;100592.53;5050510;27;102121;-58
2021/12/28 08:55:28;;;;;;;4.03;3.60;;;;;;;8.89;64.94;100593.34;5045818;27;103869;-57
2021/12/28 08:57:56;;;;;;;4.38;3.38;;;;;;;8.90;64.34;100584.09;5042086;27;102205;-57
2021/12/28 09:00:25;;;;;;;4.32;3.53;;;;;;;8.90;64.27;100589.53;5045175;27;102311;-51
2021/12/28 09:02:53;;;;;;;4.40;3.17;;;;;;;8.90;64.33;100588.72;5039344;27;102563;-53
2021/12/28 09:05:19;;;;;;;4.95;3.70;;;;;;;8.90;63.87;100586.81;5039164;27;103938;-52
2021/12/28 09:07:48;;;;;;;;;;;;;;;8.91;64.39;100579.53;5039911;27;102568;-53
2021/12/28 09:10:15;;;;;;;7.38;5.28;;;;;;;8.92;64.86;100583.03;5023938;27;107227;-53
2021/12/28 09:12:42;;;;;;;8.38;6.10;;;;;;;8.92;64.38;100583.03;5044045;27;102237;-53
2021/12/28 09:15:11;;;;;;;10.63;6.40;;;;;;;8.93;64.44;100587.38;5040101;27;104020;-53
2021/12/28 09:17:38;;;;;;;8.95;5.90;;;;;;;8.92;63.93;100589.28;5042585;27;102569;-53
2021/12/28 09:20:08;;;;;;;8.98;6.07;;;;;;;8.93;64.24;100592.81;5049033;27;103898;-55
2021/12/28 09:22:40;;;;;;;9.15;5.40;;;;;;;8.93;64.24;100592.81;5045342;27;102017;-52
2021/12/28 09:25:08;;;;;;;9.95;6.43;;;;;;;8.93;64.36;100609.91;5038392;27;103950;-53
2021/12/28 09:27:35;;;;;;;8.43;6.07;;;;;;;8.93;64.03;100606.38;5043503;27;102398;-53
2021/12/28 09:30:03;;;;;;;6.70;5.30;;;;;;;8.94;64.16;100610.72;5042940;27;102309;-53
2021/12/28 09:32:36;;;;;;;9.40;5.97;;;;;;;8.94;63.93;100603.41;5037905;27;102270;-51
2021/12/28 09:35:03;;;;;;;10.18;6.05;;;;;;;8.96;64.66;100603.16;5040034;27;103728;-52
2021/12/28 09:37:33;;;;;;;10.07;6.15;;;;;;;8.95;63.95;100598.81;5049196;27;102035;-53
2021/12/28 09:39:59;;;;;;;10.60;6.57;;;;;;;8.95;64.48;100602.34;5042978;27;102279;-52
2021/12/28 09:42:27;;;;;;;8.55;5.55;;;;;;;8.96;64.11;100597.72;5047973;27;102481;-52
2021/12/28 09:44:53;;;;;;;9.30;6.18;;;;;;;8.96;64.34;100593.09;5050272;27;103947;-52
2021/12/28 09:47:20;;;;;;;12.93;6.25;;;;;;;8.98;64.16;100584.69;5042026;27;102154;-53
2021/12/28 09:49:49;;;;;;;11.20;6.32;;;;;;;8.97;64.48;100588.50;5038277;27;102187;-53
2021/12/28 09:52:17;;;;;;;11.80;6.55;;;;;;;8.98;64.17;100595.53;5051817;27;102391;-53
2021/12/28 09:54:44;;;;;;;18.20;7.60;;;;;;;8.98;64.09;100596.38;5049634;27;103912;-53
2021/12/28 09:57:14;;;;;;;15.23;6.70;;;;;;;8.99;64.50;100602.63;5039708;27;102314;-52
2021/12/28 09:59:44;;;;;;;16.83;6.38;;;;;;;8.99;64.54;100598.00;5036387;27;102204;-53
2021/12/28 10:02:10;;;;;;;18.63;6.55;;;;;;;8.99;64.78;100592.59;5035866;27;102515;-53
2021/12/28 10:04:38;;;;;;;11.77;6.70;;;;;;;9.00;64.47;100596.91;5032501;27;104006;-53
2021/12/28 10:07:20;;;;;;;13.70;6.85;;;;;;;9.01;64.67;100593.13;5036702;27;102758;-52
2021/12/28 10:09:48;;;;;;;8.43;6.40;;;;;;;9.02;64.40;100593.97;5034084;27;102954;-52
2021/12/28 10:12:27;;;;;;;12.05;6.32;;;;;;;9.02;64.44;100597.50;5040925;27;102286;-53
2021/12/28 10:14:55;;;;;;;12.13;7.00;;;;;;;9.02;64.66;100586.63;5039986;27;103870;-53
2021/12/28 10:17:25;;;;;;;10.20;6.45;;;;;;;9.02;65.00;100596.69;5037616;27;102719;-53
2021/12/28 10:19:52;;;;;;;11.45;6.63;;;;;;;9.03;64.10;100599.13;5039287;27;102370;-53
2021/12/28 10:22:24;;;;;;;12.45;6.63;;;;;;;9.02;64.54;100607.53;5040266;27;102891;-53
2021/12/28 10:24:53;;;;;;;17.27;6.97;;;;;;;9.03;64.64;100609.16;5036289;27;103986;-53
2021/12/28 10:27:21;;;;;;;14.23;7.00;;;;;;;9.03;64.20;100603.72;5046021;27;102322;-53
2021/12/28 10:29:48;;;;;;;9.90;6.28;;;;;;;9.03;64.09;100606.44;5039767;27;102772;-53
2021/12/28 10:32:18;;;;;;;11.95;7.25;;;;;;;9.03;64.76;100609.16;5039520;27;102356;-53
2021/12/28 10:34:45;;;;;;;;;;;;;;;9.03;64.99;100609.97;5037833;27;104195;-53
2021/12/28 10:37:16;;;;;;;10.63;6.93;;;;;;;9.04;64.15;100610.78;5039737;27;102318;-53
2021/12/28 10:39:46;;;;;;;12.93;6.90;;;;;;;9.03;64.30;100607.25;5048486;27;102157;-53
2021/12/28 10:42:37;;;;;;;13.73;7.07;;;;;;;9.03;64.49;100611.88;5050040;27;102293;-53
2021/12/28 10:45:06;;;;;;;10.57;7.35;;;;;;;9.03;64.96;100609.97;5035109;27;107922;-51
2021/12/28 10:47:33;;;;;;;9.80;6.80;;;;;;;9.04;64.76;100616.22;5038342;27;103851;-52
2021/12/28 10:50:07;;;;;;;10.95;7.07;;;;;;;9.04;64.45;100614.31;5040263;27;102803;-53
2021/12/28 10:52:39;;;;;;;10.18;7.07;;;;;;;9.03;64.44;100604.53;5046557;27;103406;-53
2021/12/28 10:55:22;;;;;;;13.70;7.85;;;;;;;9.04;64.63;100600.75;5047973;27;103901;-53
2021/12/28 10:57:49;;;;;;;11.95;7.53;;;;;;;9.05;64.61;100605.09;5038456;27;102218;-53
2021/12/28 11:00:29;;;;;;;10.45;6.93;;;;;;;9.04;64.24;100600.75;5036098;27;103549;-53
2021/12/28 11:03:26;;;;;;;10.55;6.93;;;;;;;9.04;64.99;100600.75;5039568;27;102715;-53
2021/12/28 11:05:55;;;;;;;11.45;7.13;;;;;;;9.05;64.17;100596.13;5039868;27;103575;-53
2021/12/28 11:08:24;;;;;;;9.88;7.35;;;;;;;9.05;64.53;100598.84;5042341;27;103498;-53
2021/12/28 11:10:53;;;;;;;12.93;7.00;;;;;;;9.05;64.66;100604.25;5039074;27;102249;-53
2021/12/28 11:13:21;;;;;;;13.10;8.35;;;;;;;9.05;65.07;100601.56;5038967;27;102547;-53
2021/12/28 11:15:48;;;;;;;10.90;7.53;;;;;;;9.06;64.09;100597.78;5042953;27;103923;-53
2021/12/28 11:18:20;;;;;;;8.45;7.05;;;;;;;9.06;64.70;100592.34;5043108;27;102930;-53
2021/12/28 11:20:47;;;;;;;10.95;7.63;;;;;;;9.05;65.00;100596.97;5041712;27;103929;-52
2021/12/28 11:23:15;;;;;;;12.18;7.38;;;;;;;9.07;64.43;100591.25;5040431;27;103923;-52
2021/12/28 11:25:42;;;;;;;10.88;7.53;;;;;;;9.07;64.05;100593.97;5039637;27;104166;-52
2021/12/28 11:28:16;;;;;;;12.93;6.93;;;;;;;9.06;64.67;100592.34;5045950;27;102313;-53
2021/12/28 11:31:01;;;;;;;10.70;7.18;;;;;;;9.06;64.15;100598.59;5042017;27;102795;-53